Andover, South Dakota
Current Conditions -  °F | °C
As of 5:53 AM on Sunday 25 Jan 2015 (Local Time) from KABR Reporting Station
Overcast Overcast  
Wind Chill: 19°   Ceiling: 700
Heat Index: 29°   Visibility: 10mi
Dew Point: 26°   Wind: 12mph
Humidity: 89%   Direction: 360°N
Pressure: 29.96"   Gusts: NA
Location:  45.41°N, 97.9°W
Report Text: KABR 251153Z AUTO 36010KT 10SM BKN007 OVC012 M02/M03 A2996 RMK AO2 SLP158 60001 70017 T10171033 10000 21017 53022
Loading
Personal Weather Stations






























Interactive Weather Map New forecast layout! Learn more

10-Day Weather Forecast

Advertisements
Track Severe Weather on mobile